createdAt,value
2019-04-11T00:00:33.248Z,19.03
2019-04-11T00:03:05.700Z,16.57
2019-04-11T00:05:37.549Z,14.97
2019-04-11T00:08:10.126Z,15.53
2019-04-11T00:10:42.300Z,15.13
2019-04-11T00:13:21.676Z,15.53
2019-04-11T00:15:48.809Z,14.07
2019-04-11T00:18:21.267Z,15.90
2019-04-11T00:20:53.217Z,15.27
2019-04-11T00:23:25.985Z,14.83
2019-04-11T00:25:58.112Z,15.17
2019-04-11T00:28:30.447Z,15.67
2019-04-11T00:31:02.507Z,15.33
2019-04-11T00:33:35.183Z,15.00
2019-04-11T00:36:08.237Z,14.60
2019-04-11T00:38:40.359Z,14.50
2019-04-11T00:41:13.332Z,15.37
2019-04-11T00:43:46.577Z,14.43
2019-04-11T00:46:20.529Z,14.57
2019-04-11T00:48:54.501Z,14.33
2019-04-11T00:51:27.695Z,14.43
2019-04-11T00:54:00.572Z,13.90
2019-04-11T00:56:32.879Z,14.23
2019-04-11T00:59:08.631Z,14.20
2019-04-11T01:01:40.887Z,14.53
2019-04-11T01:04:36.983Z,14.13
2019-04-11T01:07:14.486Z,13.80
2019-04-11T01:09:46.639Z,13.50
2019-04-11T01:12:20.589Z,15.30
2019-04-11T01:14:53.167Z,14.63
2019-04-11T01:17:25.657Z,14.03
2019-04-11T01:19:57.620Z,14.87
2019-04-11T01:22:29.888Z,14.03
2019-04-11T01:25:02.662Z,15.40
2019-04-11T01:27:36.175Z,15.03
2019-04-11T01:30:11.791Z,14.23
2019-04-11T01:32:43.877Z,14.40
2019-04-11T01:35:15.949Z,14.53
2019-04-11T01:37:48.220Z,14.03
2019-04-11T01:40:20.067Z,15.47
2019-04-11T01:42:52.413Z,15.10
2019-04-11T01:45:27.465Z,15.87
2019-04-11T01:48:02.021Z,17.50
2019-04-11T01:50:35.502Z,15.57
2019-04-11T01:53:08.974Z,16.37
2019-04-11T01:55:41.259Z,15.80
2019-04-11T01:58:14.200Z,15.97
2019-04-11T02:00:48.738Z,15.30
2019-04-11T02:03:25.549Z,15.00
2019-04-11T02:05:57.439Z,15.77
2019-04-11T02:08:33.457Z,16.57
2019-04-11T02:11:07.176Z,16.83
2019-04-11T02:13:39.700Z,15.83
2019-04-11T02:16:12.631Z,14.87
2019-04-11T02:18:45.711Z,13.97
2019-04-11T02:21:18.097Z,14.53
2019-04-11T02:24:01.630Z,14.00
2019-04-11T02:26:38.400Z,15.13
2019-04-11T02:29:11.106Z,15.13
2019-04-11T02:31:44.550Z,14.63
2019-04-11T02:34:16.886Z,13.80
2019-04-11T02:36:51.234Z,14.27
2019-04-11T02:39:29.875Z,14.83
2019-04-11T02:42:03.833Z,14.53
2019-04-11T02:44:59.901Z,15.20
2019-04-11T02:47:22.134Z,13.62
2019-04-11T02:49:51.808Z,13.27
2019-04-11T02:52:25.390Z,13.27
2019-04-11T02:54:58.594Z,16.40
2019-04-11T02:57:32.247Z,15.20
2019-04-11T03:00:06.513Z,13.23
2019-04-11T03:02:42.423Z,14.67
2019-04-11T03:05:14.100Z,14.20
2019-04-11T03:07:47.728Z,14.70
2019-04-11T03:10:21.500Z,16.17
2019-04-11T03:12:54.544Z,14.47
2019-04-11T03:15:39.893Z,13.80
2019-04-11T03:18:06.101Z,14.30
2019-04-11T03:20:43.582Z,13.53
2019-04-11T03:23:13.821Z,14.77
2019-04-11T03:25:44.863Z,13.97
2019-04-11T03:28:22.675Z,15.50
2019-04-11T03:31:21.910Z,16.27
2019-04-11T03:34:16.213Z,16.27
2019-04-11T03:36:50.880Z,17.47
2019-04-11T03:38:52.973Z,17.13
2019-04-11T03:41:23.462Z,16.57
2019-04-11T03:43:53.014Z,16.53
2019-04-11T03:46:32.673Z,16.30
2019-04-11T03:49:00.099Z,17.00
2019-04-11T03:51:25.810Z,15.67
2019-04-11T03:53:59.132Z,16.50
2019-04-11T03:56:32.981Z,16.17
2019-04-11T03:59:06.253Z,16.23
2019-04-11T04:01:39.959Z,15.93
2019-04-11T04:04:13.248Z,16.13
2019-04-11T04:06:47.910Z,15.60
2019-04-11T04:09:21.029Z,19.33
2019-04-11T04:12:00.361Z,17.03
2019-04-11T04:14:42.856Z,16.40
2019-04-11T04:17:17.149Z,16.43
2019-04-11T04:19:51.846Z,15.53
2019-04-11T04:22:27.254Z,16.43
2019-04-11T04:25:01.072Z,17.53
2019-04-11T04:27:34.813Z,17.33
2019-04-11T04:30:08.625Z,17.67
2019-04-11T04:32:42.888Z,17.17
2019-04-11T04:35:19.004Z,16.73
2019-04-11T04:37:51.521Z,17.57
2019-04-11T04:40:41.389Z,17.10
2019-04-11T04:43:01.345Z,17.33
2019-04-11T04:45:55.371Z,16.90
2019-04-11T04:48:11.772Z,18.40
2019-04-11T04:50:42.274Z,18.77
2019-04-11T04:53:16.069Z,18.27
2019-04-11T04:55:50.203Z,16.17
2019-04-11T04:58:24.355Z,15.27
2019-04-11T05:00:58.409Z,15.40
2019-04-11T05:03:32.077Z,14.97
2019-04-11T05:06:04.418Z,14.50
2019-04-11T05:08:36.431Z,15.47
2019-04-11T05:11:08.731Z,13.57
2019-04-11T05:13:48.543Z,14.80
2019-04-11T05:16:18.780Z,14.63
2019-04-11T05:18:50.723Z,14.70
2019-04-11T05:21:23.331Z,13.20
2019-04-11T05:23:56.669Z,12.70
2019-04-11T05:26:28.759Z,12.97
2019-04-11T05:29:02.737Z,13.07
2019-04-11T05:31:35.039Z,13.53
2019-04-11T05:34:07.799Z,14.43
2019-04-11T05:36:40.883Z,13.73
2019-04-11T05:39:15.534Z,12.50
2019-04-11T05:41:48.364Z,13.67
2019-04-11T05:44:20.934Z,14.67
2019-04-11T05:46:58.756Z,13.17
2019-04-11T05:49:38.440Z,12.97
2019-04-11T05:52:12.178Z,13.97
2019-04-11T05:54:49.269Z,13.37
2019-04-11T05:57:23.815Z,13.90
2019-04-11T05:59:57.763Z,13.67
2019-04-11T06:02:37.799Z,14.27
2019-04-11T06:05:30.954Z,13.30
2019-04-11T06:08:02.541Z,12.95
2019-04-11T06:10:54.597Z,13.97
2019-04-11T06:13:34.427Z,13.30
2019-04-11T06:16:14.640Z,12.80
2019-04-11T06:18:54.609Z,11.73
2019-04-11T06:21:28.405Z,12.50
2019-04-11T06:24:18.917Z,11.90
2019-04-11T06:29:39.223Z,11.10
2019-04-11T06:32:19.364Z,11.37
2019-04-11T06:34:55.529Z,11.67
2019-04-11T06:37:38.460Z,10.43
2019-04-11T06:40:15.901Z,10.83
2019-04-11T06:42:52.421Z,9.50
2019-04-11T06:45:29.463Z,9.37
2019-04-11T06:48:03.530Z,8.43
2019-04-11T06:50:37.614Z,9.17
2019-04-11T06:53:11.403Z,8.77
2019-04-11T06:56:03.650Z,8.50
2019-04-11T06:58:40.949Z,8.67
2019-04-11T07:01:16.023Z,8.60
2019-04-11T07:03:53.281Z,8.27
2019-04-11T07:06:27.360Z,9.47
2019-04-11T07:09:20.201Z,8.97
2019-04-11T07:11:54.459Z,8.70
2019-04-11T07:14:35.357Z,8.73
2019-04-11T07:17:29.777Z,7.73
2019-04-11T07:20:24.938Z,8.37
2019-04-11T07:23:15.940Z,8.40
2019-04-11T07:26:13.700Z,7.70
2019-04-11T07:28:48.219Z,7.27
2019-04-11T07:31:38.012Z,7.97
2019-04-11T07:34:24.409Z,7.58
2019-04-11T07:37:16.460Z,7.80
2019-04-11T07:40:07.570Z,7.07
2019-04-11T07:42:47.092Z,7.07
2019-04-11T07:45:30.034Z,6.47
2019-04-11T07:48:08.821Z,6.30
2019-04-11T07:50:42.188Z,6.17
2019-04-11T07:53:21.988Z,5.60
2019-04-11T07:55:55.330Z,5.57
2019-04-11T07:58:29.159Z,6.17
2019-04-11T08:01:10.379Z,5.53
2019-04-11T08:03:47.139Z,6.03
2019-04-11T08:06:26.777Z,6.50
2019-04-11T08:09:13.188Z,6.67
2019-04-11T08:11:53.419Z,5.93
2019-04-11T08:14:44.592Z,6.08
2019-04-11T08:17:33.806Z,6.17
2019-04-11T08:20:17.849Z,6.03
2019-04-11T08:22:51.736Z,6.42
2019-04-11T08:25:31.499Z,5.77
2019-04-11T08:28:07.628Z,5.30
2019-04-11T08:30:41.586Z,7.30
2019-04-11T08:33:16.303Z,5.30
2019-04-11T08:35:54.917Z,5.90
2019-04-11T08:38:28.919Z,5.87
2019-04-11T08:41:09.409Z,6.13
2019-04-11T08:43:43.406Z,6.30
2019-04-11T08:46:18.458Z,7.07
2019-04-11T08:48:53.067Z,5.33
2019-04-11T08:51:29.629Z,6.60
2019-04-11T08:54:07.027Z,5.47
2019-04-11T08:56:41.103Z,6.57
2019-04-11T08:59:20.198Z,6.77
2019-04-11T09:01:52.129Z,6.40
2019-04-11T09:04:43.149Z,6.40
2019-04-11T09:07:17.076Z,6.22
2019-04-11T09:10:09.464Z,6.37
2019-04-11T09:12:43.320Z,5.77
2019-04-11T09:15:26.709Z,6.03
2019-04-11T09:18:05.737Z,4.77
2019-04-11T09:20:41.709Z,4.73
2019-04-11T09:23:13.769Z,5.08
2019-04-11T09:26:03.544Z,4.80
2019-04-11T09:28:37.780Z,5.53
2019-04-11T09:31:27.562Z,5.67
2019-04-11T09:34:05.683Z,5.17
2019-04-11T09:36:47.243Z,6.03
2019-04-11T09:39:21.367Z,6.40
2019-04-11T09:42:02.848Z,5.50
2019-04-11T09:44:49.247Z,5.50
2019-04-11T09:47:30.460Z,5.27
2019-04-11T09:50:09.782Z,6.03
2019-04-11T09:52:47.418Z,5.77
2019-04-11T09:55:25.451Z,5.40
2019-04-11T09:58:00.122Z,5.13
2019-04-11T10:00:38.794Z,4.83
2019-04-11T10:03:15.789Z,5.23
2019-04-11T10:05:50.290Z,4.83
2019-04-11T10:08:37.549Z,4.93
2019-04-11T10:11:11.639Z,6.80
2019-04-11T10:14:02.340Z,4.83
2019-04-11T10:16:36.050Z,5.33
2019-04-11T10:19:29.658Z,4.80
2019-04-11T10:22:10.936Z,4.70
2019-04-11T10:25:03.463Z,4.97
2019-04-11T10:27:40.654Z,4.83
2019-04-11T10:30:22.480Z,4.90
2019-04-11T10:33:15.062Z,6.30
2019-04-11T10:36:01.469Z,5.57
2019-04-11T10:38:33.740Z,6.07
2019-04-11T10:41:10.523Z,5.77
2019-04-11T10:43:42.648Z,5.60
2019-04-11T10:46:28.749Z,5.53
2019-04-11T10:49:05.426Z,5.70
2019-04-11T10:51:56.121Z,4.90
2019-04-11T10:54:30.986Z,5.28
2019-04-11T10:57:21.474Z,5.13
2019-04-11T11:00:11.167Z,5.37
2019-04-11T11:02:58.070Z,4.33
2019-04-11T11:05:32.514Z,5.30
2019-04-11T11:08:06.884Z,5.03
2019-04-11T11:10:53.309Z,4.50
2019-04-11T11:13:27.554Z,5.53
2019-04-11T11:16:00.164Z,4.47
2019-04-11T11:19:01.950Z,4.90
2019-04-11T11:21:17.777Z,4.57
2019-04-11T11:24:09.279Z,4.90
2019-04-11T11:26:41.739Z,4.90
2019-04-11T11:29:31.952Z,4.90
2019-04-11T11:32:07.060Z,4.28
2019-04-11T11:34:44.519Z,4.70
2019-04-11T11:37:24.924Z,4.17
2019-04-11T11:40:11.406Z,4.58
2019-04-11T11:42:42.100Z,4.60
2019-04-11T11:45:17.329Z,5.40
2019-04-11T11:48:14.928Z,6.00
2019-04-11T11:50:44.711Z,5.83
2019-04-11T11:53:29.580Z,4.83
2019-04-11T11:56:03.260Z,4.60
2019-04-11T11:58:53.008Z,4.23
2019-04-11T12:01:21.947Z,4.57
2019-04-11T12:04:01.289Z,4.87
2019-04-11T12:06:33.409Z,4.27
2019-04-11T12:09:12.012Z,5.00
2019-04-11T12:11:46.364Z,4.07
2019-04-11T12:14:20.674Z,5.10
2019-04-11T12:17:01.294Z,5.00
2019-04-11T12:19:47.677Z,4.57
2019-04-11T12:22:15.984Z,4.80
2019-04-11T12:24:52.690Z,5.07
2019-04-11T12:27:43.726Z,5.13
2019-04-11T12:30:20.856Z,4.47
2019-04-11T12:33:08.954Z,4.13
2019-04-11T12:35:42.829Z,4.17
2019-04-11T12:38:25.839Z,5.73
2019-04-11T12:41:09.889Z,5.77
2019-04-11T12:44:01.014Z,5.57
2019-04-11T12:46:51.927Z,4.50
2019-04-11T12:49:28.589Z,4.50
2019-04-11T12:52:19.081Z,4.83
2019-04-11T12:54:52.269Z,5.17
2019-04-11T12:57:42.873Z,4.63
2019-04-11T13:00:20.460Z,4.58
2019-04-11T13:03:00.210Z,5.13
2019-04-11T13:08:18.161Z,5.23
2019-04-11T13:10:50.023Z,5.30
2019-04-11T13:13:32.480Z,5.10
2019-04-11T13:16:14.829Z,4.77
2019-04-11T13:18:59.053Z,4.47
2019-04-11T13:21:32.965Z,6.70
2019-04-11T13:24:10.380Z,6.43
2019-04-11T13:27:00.989Z,4.40
2019-04-11T13:29:43.197Z,4.40
2019-04-11T13:32:19.651Z,5.57
2019-04-11T13:34:54.289Z,4.83
2019-04-11T13:37:45.389Z,5.00
2019-04-11T13:40:23.303Z,5.10
2019-04-11T13:43:13.789Z,4.90
2019-04-11T13:46:03.986Z,5.37
2019-04-11T13:48:46.451Z,4.60
2019-04-11T13:51:30.022Z,4.80
2019-04-11T13:54:20.519Z,5.40
2019-04-11T13:57:11.052Z,5.10
2019-04-11T13:59:45.129Z,4.92
2019-04-11T14:02:21.909Z,4.63
2019-04-11T14:04:56.119Z,4.77
2019-04-11T14:07:30.030Z,5.20
2019-04-11T14:10:03.120Z,4.60
2019-04-11T14:12:36.210Z,5.20
2019-04-11T14:15:09.909Z,4.87
2019-04-11T14:17:43.821Z,4.87
2019-04-11T14:20:28.521Z,5.50
2019-04-11T14:23:03.310Z,5.23
2019-04-11T14:25:50.908Z,5.57
2019-04-11T14:28:25.149Z,6.63
2019-04-11T14:31:15.849Z,6.17
2019-04-11T14:34:06.260Z,6.80
2019-04-11T14:44:22.709Z,6.67
2019-04-11T14:47:02.457Z,7.03
2019-04-11T14:49:35.029Z,7.23
2019-04-11T14:52:25.169Z,7.37
2019-04-11T14:54:58.520Z,6.73
2019-04-11T14:57:32.100Z,7.07
2019-04-11T15:00:10.859Z,6.63
2019-04-11T15:03:03.091Z,5.78
2019-04-11T15:05:36.969Z,6.33
2019-04-11T15:08:10.879Z,6.53
2019-04-11T15:11:01.487Z,5.67
2019-04-11T15:13:34.367Z,4.22
2019-04-11T15:16:11.239Z,6.20
2019-04-11T15:18:44.951Z,6.23
2019-04-11T15:21:31.348Z,6.33
2019-04-11T15:24:07.415Z,6.63
2019-04-11T15:27:01.169Z,6.10
2019-04-11T15:29:32.958Z,5.77
2019-04-11T15:32:23.439Z,5.47
2019-04-11T15:34:55.527Z,6.33
2019-04-11T15:37:48.039Z,6.20
2019-04-11T15:40:20.209Z,5.47
2019-04-11T15:42:54.019Z,6.90
2019-04-11T15:45:39.699Z,6.87
2019-04-11T15:48:17.853Z,6.80
2019-04-11T15:51:08.942Z,6.80
2019-04-11T15:53:48.679Z,6.30
2019-04-11T15:56:46.119Z,7.08
2019-04-11T15:59:38.679Z,7.07
2019-04-11T16:02:28.669Z,8.83
2019-04-11T16:05:03.061Z,7.67
2019-04-11T16:07:49.398Z,7.00
2019-04-11T16:10:23.589Z,7.37
2019-04-11T16:13:00.029Z,8.83
2019-04-11T16:15:39.799Z,6.83
2019-04-11T16:18:36.139Z,7.10
2019-04-11T16:21:18.635Z,7.17
2019-04-11T16:23:49.490Z,7.10
2019-04-11T16:26:26.278Z,7.53
2019-04-11T16:29:16.460Z,7.20
2019-04-11T16:32:11.350Z,8.40
2019-04-11T16:35:02.059Z,8.43
2019-04-11T16:37:34.120Z,9.85
2019-04-11T16:40:24.465Z,8.23
2019-04-11T16:42:59.200Z,8.48
2019-04-11T16:45:49.639Z,7.30
2019-04-11T16:48:25.449Z,8.20
2019-04-11T16:50:58.569Z,8.97
2019-04-11T16:53:34.535Z,12.47
2019-04-11T16:56:06.329Z,38.20
2019-04-11T16:58:38.359Z,23.10
2019-04-11T17:01:10.436Z,14.03
2019-04-11T17:03:44.076Z,10.93
2019-04-11T17:06:23.773Z,25.30
2019-04-11T17:09:07.267Z,10.00
2019-04-11T17:11:39.270Z,12.20
2019-04-11T17:14:12.039Z,13.33
2019-04-11T17:16:43.999Z,14.77
2019-04-11T17:19:15.970Z,15.47
2019-04-11T17:21:48.422Z,12.23
2019-04-11T17:24:21.027Z,14.23
2019-04-11T17:26:53.449Z,13.37
2019-04-11T17:29:31.909Z,18.27
2019-04-11T17:32:03.989Z,15.27
2019-04-11T17:34:36.859Z,15.13
2019-04-11T17:37:08.709Z,18.00
2019-04-11T17:39:40.988Z,13.93
2019-04-11T17:42:13.344Z,13.80
2019-04-11T17:44:46.249Z,16.17
2019-04-11T17:47:18.109Z,23.87
2019-04-11T17:49:51.198Z,27.37
2019-04-11T17:52:26.309Z,28.90
2019-04-11T17:55:00.188Z,32.17
2019-04-11T17:57:32.410Z,26.00
2019-04-11T18:00:07.939Z,23.57
2019-04-11T18:02:42.127Z,27.83
2019-04-11T18:05:17.196Z,26.83
2019-04-11T18:07:50.062Z,23.53
2019-04-11T18:10:25.552Z,25.43
2019-04-11T18:13:00.270Z,24.43
2019-04-11T18:15:31.155Z,20.33
2019-04-11T18:18:05.422Z,21.67
2019-04-11T18:20:38.039Z,20.97
2019-04-11T18:23:10.260Z,17.73
2019-04-11T18:25:42.620Z,17.90
2019-04-11T18:28:14.489Z,16.00
2019-04-11T18:30:47.061Z,16.87
2019-04-11T18:33:19.019Z,16.63
2019-04-11T18:35:51.636Z,17.03
2019-04-11T18:38:23.469Z,16.97
2019-04-11T18:40:55.709Z,16.40
2019-04-11T18:43:27.535Z,19.73
2019-04-11T18:45:59.699Z,18.80
2019-04-11T18:48:34.499Z,19.73
2019-04-11T18:51:06.579Z,21.40
2019-04-11T18:53:40.055Z,20.80
2019-04-11T18:56:13.049Z,22.37
2019-04-11T18:58:45.099Z,22.70
2019-04-11T19:01:18.076Z,23.43
2019-04-11T19:03:49.959Z,22.40
2019-04-11T19:06:27.829Z,19.60
2019-04-11T19:08:56.339Z,20.37
2019-04-11T19:11:28.799Z,19.30
2019-04-11T19:14:00.677Z,20.37
2019-04-11T19:16:32.729Z,21.30
2019-04-11T19:19:10.729Z,21.83
2019-04-11T19:21:43.212Z,20.47
2019-04-11T19:24:15.069Z,20.90
2019-04-11T19:26:47.254Z,22.23
2019-04-11T19:29:34.379Z,24.23
2019-04-11T19:32:13.114Z,24.87
2019-04-11T19:34:45.359Z,24.93
2019-04-11T19:37:18.421Z,23.23
2019-04-11T19:39:50.307Z,24.40
2019-04-11T19:42:23.852Z,22.93
2019-04-11T19:44:58.012Z,24.70
2019-04-11T19:47:29.975Z,22.43
2019-04-11T19:50:08.507Z,21.40
2019-04-11T19:52:45.894Z,24.00
2019-04-11T19:55:17.340Z,22.20
2019-04-11T19:57:49.302Z,21.77
2019-04-11T20:00:21.981Z,20.80
2019-04-11T20:02:54.794Z,20.37
2019-04-11T20:05:26.809Z,18.40
2019-04-11T20:08:00.710Z,17.63
2019-04-11T20:10:51.831Z,18.63
2019-04-11T20:13:25.159Z,20.97
2019-04-11T20:20:00.617Z,26.70
2019-04-11T20:22:24.059Z,30.10
2019-04-11T20:25:22.140Z,33.23
2019-04-11T20:27:57.235Z,35.67
2019-04-11T20:30:28.739Z,31.50
2019-04-11T20:33:06.886Z,30.03
2019-04-11T20:35:59.292Z,27.77
2019-04-11T20:38:32.828Z,27.73
2019-04-11T20:41:27.204Z,21.43
2019-04-11T20:44:00.190Z,20.13
2019-04-11T20:46:32.689Z,19.07
2019-04-11T20:49:12.785Z,17.83
2019-04-11T20:51:46.580Z,17.48
2019-04-11T20:54:22.743Z,17.10
2019-04-11T20:56:56.250Z,15.90
2019-04-11T20:59:34.347Z,14.73
2019-04-11T21:02:03.150Z,19.30
2019-04-11T21:04:35.613Z,20.83
2019-04-11T21:07:09.228Z,27.60
2019-04-11T21:09:43.944Z,27.20
2019-04-11T21:12:17.848Z,26.80
2019-04-11T21:14:50.011Z,22.80
2019-04-11T21:17:22.081Z,21.33
2019-04-11T21:19:53.947Z,18.73
2019-04-11T21:22:26.110Z,18.07
2019-04-11T21:24:59.474Z,15.77
2019-04-11T21:27:32.281Z,15.80
2019-04-11T21:30:06.399Z,15.47
2019-04-11T21:32:38.560Z,14.73
2019-04-11T21:35:12.274Z,13.83
2019-04-11T21:37:44.840Z,15.17
2019-04-11T21:40:17.219Z,14.27
2019-04-11T21:42:49.351Z,13.90
2019-04-11T21:45:21.349Z,13.73
2019-04-11T21:47:53.318Z,13.73
2019-04-11T21:50:25.180Z,14.33
2019-04-11T21:52:57.229Z,13.70
2019-04-11T21:55:29.090Z,13.23
2019-04-11T21:58:01.049Z,13.40
2019-04-11T22:00:40.809Z,14.57
2019-04-11T22:03:14.800Z,13.27
2019-04-11T22:05:47.069Z,13.73
2019-04-11T22:08:19.242Z,13.80
2019-04-11T22:10:51.608Z,14.47
2019-04-11T22:13:23.569Z,13.63
2019-04-11T22:15:59.529Z,15.23
2019-04-11T22:18:31.379Z,14.40
2019-04-11T22:21:06.429Z,14.33
2019-04-11T22:23:48.287Z,14.80
2019-04-11T22:26:15.569Z,14.70
2019-04-11T22:28:47.639Z,14.43
2019-04-11T22:31:19.700Z,14.17
2019-04-11T22:34:10.609Z,14.03
2019-04-11T22:36:46.875Z,13.07
2019-04-11T22:39:19.049Z,16.27
2019-04-11T22:41:51.822Z,13.37
2019-04-11T22:44:23.779Z,14.43
2019-04-11T22:46:55.639Z,13.60
2019-04-11T22:49:27.616Z,13.53
2019-04-11T22:51:59.480Z,13.07
2019-04-11T22:54:31.629Z,13.13
2019-04-11T22:57:03.498Z,13.10
2019-04-11T22:59:36.588Z,12.47
2019-04-11T23:02:17.058Z,13.13
2019-04-11T23:04:49.731Z,13.07
2019-04-11T23:07:21.689Z,13.50
2019-04-11T23:14:20.829Z,13.68
2019-04-11T23:16:53.279Z,13.57
2019-04-11T23:19:25.448Z,13.33
2019-04-11T23:21:57.321Z,14.47
2019-04-11T23:24:29.269Z,14.73
2019-04-11T23:27:01.239Z,14.97
2019-04-11T23:29:33.413Z,13.83
2019-04-11T23:32:05.369Z,14.53
2019-04-11T23:34:37.540Z,13.63
2019-04-11T23:37:13.292Z,14.37
2019-04-11T23:39:45.357Z,14.50
2019-04-11T23:42:19.622Z,13.67
2019-04-11T23:44:51.249Z,13.93
2019-04-11T23:47:23.915Z,14.07
2019-04-11T23:49:56.274Z,13.73
2019-04-11T23:52:31.000Z,13.13
2019-04-11T23:55:03.889Z,13.97
2019-04-11T23:57:35.639Z,13.37
